Time;durP1;ratioP1;P1;durP2;ratioP2;P2;SDS_P1;SDS_P2;PMS_P1;PMS_P2;Temp;Humidity;BMP_temperature;BMP_pressure;BME280_temperature;BME280_humidity;BME280_pressure;Samples;Min_cycle;Max_cycle;Signal;HPM_P1;HPM_P2
2023/05/30 00:00:00;;;;;;;4.77;2.50;;;;;;;;;;6162477;28;109003;-69
2023/05/30 00:03:04;;;;;;;4.50;2.83;;;;;;;;;;6137164;22;109318;-70
2023/05/30 00:06:07;;;;;;;3.70;3.00;;;;;;;;;;6127412;28;109018;-70
2023/05/30 00:09:10;;;;;;;3.37;3.07;;;;;;;;;;6139390;28;108966;-69
2023/05/30 00:12:13;;;;;;;6.20;3.80;;;;;;;;;;6140338;28;109037;-70
2023/05/30 00:15:18;;;;;;;3.73;3.10;;;;;;;;;;6135702;28;109052;-70
2023/05/30 00:18:23;;;;;;;4.17;3.27;;;;;;;;;;6164760;28;109181;-69
2023/05/30 00:21:27;;;;;;;3.93;2.90;;;;;;;;;;6165095;28;110800;-69
2023/05/30 00:24:31;;;;;;;3.60;2.80;;;;;;;;;;6149493;28;109046;-71
2023/05/30 00:27:34;;;;;;;4.27;3.43;;;;;;;;;;6134731;28;108791;-69
2023/05/30 00:30:38;;;;;;;3.07;2.87;;;;;;;;;;6139896;28;109315;-73
2023/05/30 00:33:41;;;;;;;3.00;2.57;;;;;;;;;;6139751;28;109110;-69
2023/05/30 00:36:44;;;;;;;3.13;2.83;;;;;;;;;;6129205;28;108942;-69
2023/05/30 00:39:47;;;;;;;7.10;3.70;;;;;;;;;;6139572;28;109090;-69
2023/05/30 00:42:50;;;;;;;3.20;2.90;;;;;;;;;;6139859;28;109652;-69
2023/05/30 00:45:55;;;;;;;3.90;2.80;;;;;;;;;;6149707;28;109017;-69
2023/05/30 00:48:59;;;;;;;2.80;2.60;;;;;;;;;;6153474;28;109218;-70
2023/05/30 00:52:02;;;;;;;2.73;2.53;;;;;;;;;;6163912;28;108995;-68
2023/05/30 00:55:05;;;;;;;5.50;3.00;;;;;;;;;;6164122;28;109723;-69
2023/05/30 00:58:08;;;;;;;4.63;2.67;;;;;;;;;;6156920;28;110061;-71
2023/05/30 01:01:13;;;;;;;4.57;2.70;;;;;;;;;;6128414;28;109648;-70
2023/05/30 01:04:18;;;;;;;3.30;2.97;;;;;;;;;;6139433;28;109473;-70
2023/05/30 01:07:20;;;;;;;3.20;3.00;;;;;;;;;;6134599;28;109055;-70
2023/05/30 01:10:24;;;;;;;3.60;2.87;;;;;;;;;;6108443;28;109648;-67
2023/05/30 01:13:29;;;;;;;4.27;3.40;;;;;;;;;;6134388;28;108966;-73
2023/05/30 01:16:37;;;;;;;2.97;2.60;;;;;;;;;;6139580;28;109666;-69
2023/05/30 01:19:47;;;;;;;2.87;2.67;;;;;;;;;;6126767;28;111380;-72
2023/05/30 01:23:03;;;;;;;3.53;2.70;;;;;;;;;;6122619;28;108987;-72
2023/05/30 01:26:08;;;;;;;3.10;2.80;;;;;;;;;;6127235;28;109348;-72
2023/05/30 01:29:17;;;;;;;3.33;2.63;;;;;;;;;;6114767;28;108990;-71
2023/05/30 01:32:20;;;;;;;4.17;3.27;;;;;;;;;;6122754;28;108915;-71
2023/05/30 01:35:23;;;;;;;5.27;3.00;;;;;;;;;;6129592;28;109186;-72
2023/05/30 01:38:26;;;;;;;3.50;3.20;;;;;;;;;;6138606;28;109396;-72
2023/05/30 01:41:31;;;;;;;2.87;2.60;;;;;;;;;;6138765;28;109727;-72
2023/05/30 01:44:39;;;;;;;3.13;2.50;;;;;;;;;;6130458;28;109536;-70
2023/05/30 01:47:44;;;;;;;4.37;2.93;;;;;;;;;;6138274;28;109109;-72
2023/05/30 01:50:49;;;;;;;4.03;2.67;;;;;;;;;;6138760;28;108981;-74
2023/05/30 01:53:57;;;;;;;2.87;2.57;;;;;;;;;;6139450;28;111970;-71
2023/05/30 01:57:03;;;;;;;3.43;3.10;;;;;;;;;;6127637;28;109975;-71
2023/05/30 02:00:10;;;;;;;2.83;2.50;;;;;;;;;;6138834;28;108700;-70
2023/05/30 02:03:13;;;;;;;3.10;2.80;;;;;;;;;;6138438;28;109924;-71
2023/05/30 02:06:16;;;;;;;2.87;2.67;;;;;;;;;;6138132;28;109042;-72
2023/05/30 02:09:18;;;;;;;5.23;3.13;;;;;;;;;;6127986;28;109999;-74
2023/05/30 02:12:21;;;;;;;6.67;3.17;;;;;;;;;;6138050;28;109014;-72
2023/05/30 02:15:26;;;;;;;3.30;2.80;;;;;;;;;;6132374;28;109052;-72
2023/05/30 02:18:28;;;;;;;2.80;2.43;;;;;;;;;;6156845;28;109002;-70
2023/05/30 02:21:31;;;;;;;3.63;3.33;;;;;;;;;;6145787;28;108825;-68
2023/05/30 02:24:34;;;;;;;3.37;3.07;;;;;;;;;;6136907;28;110620;-70
2023/05/30 02:27:37;;;;;;;6.27;3.20;;;;;;;;;;6135896;28;108926;-70
2023/05/30 02:30:41;;;;;;;3.90;3.30;;;;;;;;;;6115329;28;108998;-68
2023/05/30 02:33:44;;;;;;;3.33;3.00;;;;;;;;;;6137563;28;109337;-69
2023/05/30 02:36:47;;;;;;;3.37;3.07;;;;;;;;;;6137842;28;109391;-69
2023/05/30 02:39:50;;;;;;;4.27;3.03;;;;;;;;;;6137547;28;110139;-70
2023/05/30 02:42:53;;;;;;;3.07;2.70;;;;;;;;;;6126955;28;111325;-69
2023/05/30 02:45:57;;;;;;;3.73;2.90;;;;;;;;;;6147730;28;111685;-70
2023/05/30 02:49:00;;;;;;;4.23;3.10;;;;;;;;;;6144873;28;109270;-70
2023/05/30 02:52:04;;;;;;;3.57;2.83;;;;;;;;;;6133465;28;109007;-68
2023/05/30 02:55:07;;;;;;;2.80;2.60;;;;;;;;;;6129237;28;109444;-69
2023/05/30 02:58:11;;;;;;;3.17;2.63;;;;;;;;;;6137197;28;109143;-71
2023/05/30 03:01:15;;;;;;;4.87;3.73;;;;;;;;;;6136763;28;109034;-70
2023/05/30 03:04:18;;;;;;;4.20;3.43;;;;;;;;;;6126671;28;109005;-70
2023/05/30 03:07:22;;;;;;;4.00;3.00;;;;;;;;;;6136835;28;108902;-69
2023/05/30 03:10:25;;;;;;;5.67;3.50;;;;;;;;;;6137562;28;110399;-68
2023/05/30 03:13:28;;;;;;;5.63;3.20;;;;;;;;;;6137056;28;109039;-70
2023/05/30 03:16:32;;;;;;;6.10;3.10;;;;;;;;;;6140095;28;108993;-69
2023/05/30 03:19:36;;;;;;;5.07;3.67;;;;;;;;;;6161371;28;110274;-69
2023/05/30 03:22:39;;;;;;;3.80;3.37;;;;;;;;;;6161468;28;109289;-70
2023/05/30 03:25:41;;;;;;;12.63;3.73;;;;;;;;;;6142807;28;109138;-70
2023/05/30 03:28:44;;;;;;;4.23;3.33;;;;;;;;;;6126452;28;110041;-68
2023/05/30 03:31:49;;;;;;;3.60;3.30;;;;;;;;;;6137018;28;109369;-64
2023/05/30 03:34:52;;;;;;;8.20;5.07;;;;;;;;;;6132347;28;109051;-65
2023/05/30 03:37:55;;;;;;;6.53;4.07;;;;;;;;;;6117615;28;109843;-64
2023/05/30 03:40:58;;;;;;;4.10;3.60;;;;;;;;;;6123486;28;112550;-64
2023/05/30 03:44:01;;;;;;;16.20;4.13;;;;;;;;;;6141744;28;109950;-63
2023/05/30 03:47:06;;;;;;;7.83;4.33;;;;;;;;;;6160071;28;109261;-64
2023/05/30 03:50:09;;;;;;;13.83;4.40;;;;;;;;;;6131218;28;109610;-64
2023/05/30 03:53:12;;;;;;;11.67;4.17;;;;;;;;;;6129377;28;109373;-66
2023/05/30 03:56:15;;;;;;;15.20;4.30;;;;;;;;;;6117831;28;109441;-64
2023/05/30 03:59:18;;;;;;;19.57;5.10;;;;;;;;;;6120724;28;109236;-63
2023/05/30 04:02:22;;;;;;;18.93;4.67;;;;;;;;;;6138979;28;109005;-65
2023/05/30 04:05:25;;;;;;;19.90;6.20;;;;;;;;;;6151568;28;112960;-64
2023/05/30 04:08:28;;;;;;;16.30;4.40;;;;;;;;;;6143204;28;109819;-65
2023/05/30 04:11:31;;;;;;;14.13;4.97;;;;;;;;;;6160507;28;109031;-66
2023/05/30 04:14:34;;;;;;;51.50;8.20;;;;;;;;;;6135593;28;112001;-64
2023/05/30 04:17:38;;;;;;;54.27;9.23;;;;;;;;;;6139547;28;109080;-65
2023/05/30 04:20:41;;;;;;;72.03;10.17;;;;;;;;;;6140778;28;109545;-69
2023/05/30 04:23:44;;;;;;;45.43;7.10;;;;;;;;;;6133358;28;109899;-63
2023/05/30 04:26:48;;;;;;;25.40;5.30;;;;;;;;;;6118881;28;109114;-63
2023/05/30 04:29:53;;;;;;;21.53;6.30;;;;;;;;;;6116620;28;109052;-64
2023/05/30 04:32:57;;;;;;;14.93;6.70;;;;;;;;;;6116129;28;109047;-64
2023/05/30 04:36:01;;;;;;;14.17;6.40;;;;;;;;;;6105348;28;109139;-63
2023/05/30 04:39:04;;;;;;;11.40;6.37;;;;;;;;;;6147442;28;110130;-62
2023/05/30 04:42:07;;;;;;;11.17;6.43;;;;;;;;;;6164677;28;109168;-68
2023/05/30 04:45:14;;;;;;;12.80;6.20;;;;;;;;;;6163672;28;109486;-68
2023/05/30 04:48:19;;;;;;;9.47;5.80;;;;;;;;;;6152967;28;109147;-68
2023/05/30 04:51:23;;;;;;;8.27;5.20;;;;;;;;;;6164269;28;110161;-68
2023/05/30 04:54:27;;;;;;;6.00;5.50;;;;;;;;;;6164258;28;109131;-68
2023/05/30 04:57:30;;;;;;;6.00;5.03;;;;;;;;;;6159819;28;108975;-70
2023/05/30 05:00:35;;;;;;;5.63;5.03;;;;;;;;;;6157918;28;109383;-68
2023/05/30 05:03:40;;;;;;;9.23;4.77;;;;;;;;;;6163854;28;109364;-68
2023/05/30 05:06:43;;;;;;;6.20;4.40;;;;;;;;;;6163570;28;108817;-67
2023/05/30 05:09:46;;;;;;;6.70;4.87;;;;;;;;;;6131770;28;109292;-68
2023/05/30 05:12:49;;;;;;;7.07;4.73;;;;;;;;;;6139889;28;110691;-67
2023/05/30 05:15:52;;;;;;;7.97;4.80;;;;;;;;;;6139314;28;109015;-67
2023/05/30 05:18:56;;;;;;;7.20;4.90;;;;;;;;;;6139655;28;110328;-68
2023/05/30 05:21:59;;;;;;;5.37;4.53;;;;;;;;;;6129691;28;110046;-68
2023/05/30 05:25:03;;;;;;;6.70;4.50;;;;;;;;;;6138925;28;109025;-68
2023/05/30 05:28:07;;;;;;;8.43;5.00;;;;;;;;;;6139283;28;109017;-66
2023/05/30 05:31:10;;;;;;;4.63;4.33;;;;;;;;;;6127699;28;109018;-67
2023/05/30 05:34:14;;;;;;;6.13;5.03;;;;;;;;;;6107312;28;110099;-69
2023/05/30 05:37:17;;;;;;;10.17;5.80;;;;;;;;;;6115763;28;109059;-68
2023/05/30 05:40:20;;;;;;;7.23;4.20;;;;;;;;;;6163133;28;109464;-69
2023/05/30 05:43:23;;;;;;;6.17;4.90;;;;;;;;;;6153368;28;110001;-68
2023/05/30 05:46:25;;;;;;;6.40;5.20;;;;;;;;;;6162399;28;109165;-68
2023/05/30 05:49:30;;;;;;;6.93;5.77;;;;;;;;;;6163119;28;108928;-67
2023/05/30 05:52:33;;;;;;;8.50;5.40;;;;;;;;;;6138617;28;109272;-64
2023/05/30 05:55:35;;;;;;;8.60;4.77;;;;;;;;;;6127958;28;109284;-63
2023/05/30 05:58:38;;;;;;;9.23;4.20;;;;;;;;;;6138243;28;110154;-62
2023/05/30 06:01:42;;;;;;;7.00;4.00;;;;;;;;;;6124065;28;109457;-63
2023/05/30 06:04:47;;;;;;;7.30;4.63;;;;;;;;;;6114755;28;109939;-63
2023/05/30 06:07:50;;;;;;;7.63;4.20;;;;;;;;;;6113020;28;109374;-62
2023/05/30 06:10:52;;;;;;;4.43;4.10;;;;;;;;;;6163427;28;108543;-63
2023/05/30 06:13:55;;;;;;;6.67;3.83;;;;;;;;;;6163132;28;108995;-64
2023/05/30 06:16:59;;;;;;;7.77;4.07;;;;;;;;;;6157705;28;109037;-63
2023/05/30 06:20:04;;;;;;;4.20;3.83;;;;;;;;;;6157565;28;109303;-63
2023/05/30 06:23:07;;;;;;;4.77;4.37;;;;;;;;;;6162656;28;108994;-65
2023/05/30 06:26:10;;;;;;;4.77;4.07;;;;;;;;;;6162731;28;109101;-63
2023/05/30 06:29:14;;;;;;;6.20;4.10;;;;;;;;;;6153453;28;110106;-67
2023/05/30 06:32:17;;;;;;;6.03;4.40;;;;;;;;;;6163446;28;111518;-64
2023/05/30 06:35:21;;;;;;;6.63;4.57;;;;;;;;;;6162857;28;109320;-64
2023/05/30 06:38:25;;;;;;;6.87;4.80;;;;;;;;;;6152750;28;109006;-63
2023/05/30 06:41:28;;;;;;;6.03;5.07;;;;;;;;;;6127172;28;109422;-64
2023/05/30 06:44:31;;;;;;;5.50;4.73;;;;;;;;;;6138285;28;109065;-64
2023/05/30 06:47:34;;;;;;;6.60;5.37;;;;;;;;;;6138337;28;108931;-63
2023/05/30 06:50:38;;;;;;;6.93;5.13;;;;;;;;;;6137375;28;109883;-62
2023/05/30 06:53:41;;;;;;;6.00;5.40;;;;;;;;;;6129604;28;109019;-62
2023/05/30 06:56:44;;;;;;;7.43;5.80;;;;;;;;;;6138480;28;110371;-62
2023/05/30 06:59:47;;;;;;;5.90;5.40;;;;;;;;;;6138542;28;110010;-62
2023/05/30 07:02:50;;;;;;;8.27;6.60;;;;;;;;;;6127663;28;109159;-61
2023/05/30 07:05:55;;;;;;;6.70;5.97;;;;;;;;;;6137164;28;110093;-61
2023/05/30 07:08:57;;;;;;;7.43;6.50;;;;;;;;;;6152691;28;109006;-61
2023/05/30 07:12:01;;;;;;;7.83;6.50;;;;;;;;;;6166141;28;109019;-61
2023/05/30 07:15:04;;;;;;;10.10;6.53;;;;;;;;;;6156114;28;109135;-61
2023/05/30 07:18:06;;;;;;;8.10;6.37;;;;;;;;;;6166681;28;109166;-61
2023/05/30 07:21:11;;;;;;;10.37;7.67;;;;;;;;;;6166164;28;109103;-61
2023/05/30 07:24:14;;;;;;;10.03;7.30;;;;;;;;;;6166413;28;108531;-65
2023/05/30 07:27:16;;;;;;;10.97;7.43;;;;;;;;;;6156012;28;109183;-61
2023/05/30 07:30:20;;;;;;;8.73;7.13;;;;;;;;;;6166311;28;108995;-61
2023/05/30 07:33:23;;;;;;;12.47;7.67;;;;;;;;;;6143624;28;109326;-61
2023/05/30 07:36:27;;;;;;;8.80;7.60;;;;;;;;;;6136142;28;109000;-60
2023/05/30 07:39:30;;;;;;;12.43;11.07;;;;;;;;;;6153796;28;109412;-61
2023/05/30 07:42:33;;;;;;;17.23;14.37;;;;;;;;;;6165674;28;109069;-61
2023/05/30 07:45:35;;;;;;;21.27;14.30;;;;;;;;;;6166059;28;109369;-62
2023/05/30 07:48:40;;;;;;;17.33;14.47;;;;;;;;;;6155549;28;110125;-61
2023/05/30 07:51:45;;;;;;;16.20;14.33;;;;;;;;;;6165654;28;109950;-61
2023/05/30 07:54:48;;;;;;;14.97;13.37;;;;;;;;;;6165152;28;109268;-61
2023/05/30 07:57:50;;;;;;;18.60;14.77;;;;;;;;;;6165633;28;109996;-60
2023/05/30 08:00:53;;;;;;;15.20;13.60;;;;;;;;;;6154073;28;110375;-61
2023/05/30 08:03:56;;;;;;;17.73;13.00;;;;;;;;;;6164993;28;109246;-60
2023/05/30 08:07:02;;;;;;;12.43;10.77;;;;;;;;;;6165252;28;110004;-60
2023/05/30 08:10:06;;;;;;;12.83;10.87;;;;;;;;;;6142728;28;109060;-60
2023/05/30 08:13:08;;;;;;;14.80;11.53;;;;;;;;;;6131470;28;109065;-60
2023/05/30 08:16:11;;;;;;;12.80;11.03;;;;;;;;;;6141068;28;109018;-60
2023/05/30 08:19:15;;;;;;;17.10;12.27;;;;;;;;;;6140714;28;109375;-60
2023/05/30 08:22:21;;;;;;;12.67;11.37;;;;;;;;;;6130977;28;110040;-62
2023/05/30 08:25:24;;;;;;;13.27;10.50;;;;;;;;;;6140850;28;109051;-62
2023/05/30 08:28:28;;;;;;;13.20;11.60;;;;;;;;;;6140807;28;110124;-60
2023/05/30 08:31:31;;;;;;;17.97;12.77;;;;;;;;;;6140654;28;108975;-61
2023/05/30 08:34:34;;;;;;;33.43;15.37;;;;;;;;;;6118215;28;109033;-61
2023/05/30 08:37:39;;;;;;;28.47;14.03;;;;;;;;;;6121108;28;108986;-61
2023/05/30 08:40:42;;;;;;;23.60;13.40;;;;;;;;;;6164595;28;109061;-61
2023/05/30 08:43:45;;;;;;;16.07;11.77;;;;;;;;;;6164286;28;109013;-61
2023/05/30 08:46:48;;;;;;;16.97;11.73;;;;;;;;;;6154270;28;109541;-60
2023/05/30 08:49:52;;;;;;;22.43;11.20;;;;;;;;;;6164984;28;108871;-61
2023/05/30 08:52:58;;;;;;;18.60;11.30;;;;;;;;;;6163877;28;109053;-61
2023/05/30 08:56:05;;;;;;;18.97;12.27;;;;;;;;;;6159041;28;109291;-61
2023/05/30 08:59:09;;;;;;;29.80;20.37;;;;;;;;;;6158380;28;109378;-61
2023/05/30 09:02:13;;;;;;;30.53;23.77;;;;;;;;;;6163436;28;108836;-61
2023/05/30 09:05:17;;;;;;;39.67;25.93;;;;;;;;;;6147103;28;109252;-61
2023/05/30 09:08:22;;;;;;;35.20;25.23;;;;;;;;;;6136311;28;108987;-62
2023/05/30 09:11:26;;;;;;;52.70;26.73;;;;;;;;;;6163771;28;109015;-62
2023/05/30 09:14:29;;;;;;;67.97;27.20;;;;;;;;;;6163625;28;109460;-60
2023/05/30 09:17:32;;;;;;;75.57;27.03;;;;;;;;;;6163806;28;109070;-62
2023/05/30 09:20:38;;;;;;;64.07;24.27;;;;;;;;;;6152991;28;109064;-61
2023/05/30 09:23:43;;;;;;;77.63;25.07;;;;;;;;;;6159162;28;109023;-62
2023/05/30 09:26:58;;;;;;;59.30;23.10;;;;;;;;;;6115114;28;108846;-62
2023/05/30 09:30:06;;;;;;;52.83;21.87;;;;;;;;;;6110030;28;109443;-62
2023/05/30 09:33:09;;;;;;;46.70;23.80;;;;;;;;;;6108348;28;108916;-62
2023/05/30 09:36:18;;;;;;;68.60;24.90;;;;;;;;;;6115165;28;108660;-62
2023/05/30 09:39:25;;;;;;;64.53;28.70;;;;;;;;;;6146549;28;108883;-62
2023/05/30 09:42:38;;;;;;;75.73;26.30;;;;;;;;;;6152977;28;109516;-62
2023/05/30 09:45:46;;;;;;;56.93;27.00;;;;;;;;;;6162950;28;109029;-62
2023/05/30 09:48:49;;;;;;;85.23;27.50;;;;;;;;;;6162696;28;109004;-62
2023/05/30 09:51:52;;;;;;;77.80;25.93;;;;;;;;;;6162828;28;109039;-63
2023/05/30 09:54:57;;;;;;;96.73;28.30;;;;;;;;;;6151786;28;109082;-61
2023/05/30 09:58:00;;;;;;;89.40;28.80;;;;;;;;;;6162449;28;109009;-62
2023/05/30 10:01:03;;;;;;;109.70;30.40;;;;;;;;;;6161881;28;109009;-62
2023/05/30 10:04:12;;;;;;;114.27;28.90;;;;;;;;;;6157276;28;109132;-62
2023/05/30 10:07:16;;;;;;;147.53;31.50;;;;;;;;;;6157937;28;110162;-62
2023/05/30 10:10:21;;;;;;;110.97;27.30;;;;;;;;;;6139395;28;109952;-62
2023/05/30 10:13:23;;;;;;;126.63;27.93;;;;;;;;;;6138500;28;110022;-62
2023/05/30 10:16:29;;;;;;;124.00;30.97;;;;;;;;;;6128418;28;109370;-62
2023/05/30 10:19:42;;;;;;;100.73;30.20;;;;;;;;;;6138168;28;108988;-62
2023/05/30 10:22:45;;;;;;;105.60;29.60;;;;;;;;;;6137942;28;108999;-63
2023/05/30 10:25:51;;;;;;;101.20;28.90;;;;;;;;;;6138142;28;109016;-65
2023/05/30 10:28:56;;;;;;;77.77;25.90;;;;;;;;;;6128439;28;109046;-66
2023/05/30 10:32:01;;;;;;;86.30;29.13;;;;;;;;;;6138110;28;109141;-63
2023/05/30 10:35:07;;;;;;;78.77;30.27;;;;;;;;;;6138287;28;109418;-70
2023/05/30 10:38:11;;;;;;;90.20;37.80;;;;;;;;;;6138968;28;109309;-66
2023/05/30 10:41:24;;;;;;;81.60;37.30;;;;;;;;;;6156989;28;108982;-69
2023/05/30 10:44:35;;;;;;;99.87;41.90;;;;;;;;;;6158929;28;109073;-68
2023/05/30 10:47:43;;;;;;;102.50;42.83;;;;;;;;;;6137957;28;109100;-68
2023/05/30 10:50:49;;;;;;;90.00;40.23;;;;;;;;;;6127420;28;109228;-66
2023/05/30 10:53:52;;;;;;;89.47;38.60;;;;;;;;;;6137510;28;109130;-69
2023/05/30 10:56:58;;;;;;;74.50;37.60;;;;;;;;;;6138323;28;108516;-68
2023/05/30 11:00:09;;;;;;;66.47;37.60;;;;;;;;;;6137444;28;109003;-69
2023/05/30 11:03:32;;;;;;;70.13;38.37;;;;;;;;;;6127174;28;110440;-68
2023/05/30 11:06:36;;;;;;;59.57;33.17;;;;;;;;;;6137446;28;109017;-69
2023/05/30 11:09:40;;;;;;;53.40;30.47;;;;;;;;;;6137468;28;110151;-69
2023/05/30 11:12:45;;;;;;;52.47;30.23;;;;;;;;;;6128177;28;109335;-63
2023/05/30 11:15:48;;;;;;;47.47;26.30;;;;;;;;;;6136816;28;109353;-70
2023/05/30 11:18:53;;;;;;;40.93;24.10;;;;;;;;;;6137444;28;109035;-71
2023/05/30 11:21:56;;;;;;;37.47;23.67;;;;;;;;;;6137238;28;109538;-71
2023/05/30 11:25:14;;;;;;;42.97;22.47;;;;;;;;;;6125724;28;109743;-68
2023/05/30 11:28:33;;;;;;;35.03;20.00;;;;;;;;;;6137000;28;108756;-67
2023/05/30 11:31:36;;;;;;;29.20;17.80;;;;;;;;;;6137036;28;109373;-69
2023/05/30 11:34:39;;;;;;;28.63;18.03;;;;;;;;;;6135790;28;108989;-66
2023/05/30 11:37:43;;;;;;;23.70;15.30;;;;;;;;;;6129565;28;109070;-68
2023/05/30 11:40:46;;;;;;;23.23;13.90;;;;;;;;;;6136889;28;109143;-67
2023/05/30 11:43:51;;;;;;;16.77;11.97;;;;;;;;;;6140144;28;109400;-62
2023/05/30 11:47:00;;;;;;;19.43;11.60;;;;;;;;;;6151748;28;109884;-60
2023/05/30 11:50:04;;;;;;;13.43;10.17;;;;;;;;;;6160417;28;108977;-61
2023/05/30 11:53:13;;;;;;;3.33;3.03;;;;;;;;;;6160945;28;109004;-66
2023/05/30 11:56:16;;;;;;;2.70;2.50;;;;;;;;;;6162942;28;109531;-66
2023/05/30 11:59:21;;;;;;;2.40;2.20;;;;;;;;;;6153926;28;108774;-65
2023/05/30 12:02:27;;;;;;;2.53;2.33;;;;;;;;;;6164652;28;109013;-65
2023/05/30 12:05:34;;;;;;;2.50;2.27;;;;;;;;;;6145619;28;109960;-65
2023/05/30 12:08:39;;;;;;;3.10;2.80;;;;;;;;;;6141159;28;109528;-65
2023/05/30 12:11:51;;;;;;;2.90;2.20;;;;;;;;;;6130758;28;109204;-64
2023/05/30 12:15:02;;;;;;;2.93;2.57;;;;;;;;;;6152721;28;109501;-68
2023/05/30 12:18:05;;;;;;;3.60;2.53;;;;;;;;;;6164497;28;109090;-64
2023/05/30 12:21:10;;;;;;;25.27;12.30;;;;;;;;;;6154662;28;109564;-66
2023/05/30 12:24:14;;;;;;;28.83;14.00;;;;;;;;;;6165353;28;113132;-64
2023/05/30 12:27:17;;;;;;;10.73;5.97;;;;;;;;;;6164640;28;109767;-66
2023/05/30 12:30:22;;;;;;;3.30;3.00;;;;;;;;;;6164961;28;109130;-67
2023/05/30 12:33:27;;;;;;;3.47;2.80;;;;;;;;;;6154006;28;109122;-64
2023/05/30 12:36:30;;;;;;;2.43;2.23;;;;;;;;;;6165078;28;109002;-64
2023/05/30 12:39:33;;;;;;;2.73;2.53;;;;;;;;;;6165156;28;109330;-65
2023/05/30 12:42:37;;;;;;;2.87;2.67;;;;;;;;;;6164665;28;108948;-63
2023/05/30 12:45:43;;;;;;;3.50;2.80;;;;;;;;;;6135687;28;109298;-67
2023/05/30 12:48:46;;;;;;;4.17;2.63;;;;;;;;;;6140287;28;108982;-66
2023/05/30 12:51:49;;;;;;;5.80;5.10;;;;;;;;;;6140301;28;109034;-66
2023/05/30 12:54:52;;;;;;;3.83;1.70;;;;;;;;;;6133167;28;109018;-71
2023/05/30 12:57:56;;;;;;;5.90;1.80;;;;;;;;;;6137982;28;113309;-72
2023/05/30 13:01:00;;;;;;;2.10;1.50;;;;;;;;;;6139354;28;109011;-72
2023/05/30 13:04:03;;;;;;;6.10;2.40;;;;;;;;;;6139790;28;109226;-71
2023/05/30 13:07:08;;;;;;;24.43;22.03;;;;;;;;;;6134514;28;109275;-72
2023/05/30 13:10:12;;;;;;;6.47;5.80;;;;;;;;;;6163467;28;109189;-72
2023/05/30 13:13:16;;;;;;;3.60;3.10;;;;;;;;;;6163498;28;108991;-71
2023/05/30 13:16:21;;;;;;;2.33;2.13;;;;;;;;;;6140624;28;109112;-72
2023/05/30 13:19:24;;;;;;;1.70;1.60;;;;;;;;;;6128702;28;109025;-71
2023/05/30 13:22:27;;;;;;;2.23;1.83;;;;;;;;;;6139908;28;111320;-70
2023/05/30 13:25:30;;;;;;;2.70;2.20;;;;;;;;;;6139191;28;110502;-71
2023/05/30 13:28:33;;;;;;;6.50;3.40;;;;;;;;;;6134277;28;108983;-70
2023/05/30 13:31:40;;;;;;;22.40;17.27;;;;;;;;;;6133763;28;109435;-71
2023/05/30 13:34:43;;;;;;;31.30;27.67;;;;;;;;;;6139292;28;112154;-71
2023/05/30 13:37:46;;;;;;;4.93;4.53;;;;;;;;;;6138873;28;108988;-72
2023/05/30 13:40:49;;;;;;;5.03;4.63;;;;;;;;;;6129086;28;110052;-71
2023/05/30 13:43:52;;;;;;;5.70;4.33;;;;;;;;;;6141584;28;109038;-71
2023/05/30 13:46:56;;;;;;;4.83;3.10;;;;;;;;;;6163004;28;109044;-71
2023/05/30 13:49:59;;;;;;;3.67;3.00;;;;;;;;;;6162544;28;109247;-71
2023/05/30 13:53:02;;;;;;;3.17;2.87;;;;;;;;;;6152767;28;109105;-70
2023/05/30 13:56:05;;;;;;;3.10;2.60;;;;;;;;;;6163157;28;109092;-71
2023/05/30 13:59:08;;;;;;;3.00;2.67;;;;;;;;;;6166060;28;109222;-71
2023/05/30 14:02:12;;;;;;;3.80;2.50;;;;;;;;;;6165097;28;108915;-71
2023/05/30 14:05:15;;;;;;;3.40;2.40;;;;;;;;;;6156069;28;108980;-72
2023/05/30 14:08:20;;;;;;;4.53;3.00;;;;;;;;;;6165610;28;108824;-71
2023/05/30 14:11:23;;;;;;;2.70;2.43;;;;;;;;;;6162746;28;109352;-71
2023/05/30 14:14:26;;;;;;;3.23;2.60;;;;;;;;;;6147206;28;109833;-68
2023/05/30 14:17:31;;;;;;;4.10;2.93;;;;;;;;;;6137363;28;112146;-70
2023/05/30 14:20:34;;;;;;;2.73;2.40;;;;;;;;;;6137763;28;109227;-73
2023/05/30 14:23:37;;;;;;;4.17;2.73;;;;;;;;;;6138620;28;109031;-72
2023/05/30 14:26:41;;;;;;;3.83;2.43;;;;;;;;;;6126897;28;108970;-71
2023/05/30 14:29:44;;;;;;;3.07;2.77;;;;;;;;;;6138206;28;109016;-70
2023/05/30 14:32:49;;;;;;;3.13;2.37;;;;;;;;;;6138638;28;108860;-69
2023/05/30 14:35:52;;;;;;;3.37;3.03;;;;;;;;;;6138460;28;108877;-71
2023/05/30 14:38:55;;;;;;;3.50;2.73;;;;;;;;;;6127971;28;110000;-70
2023/05/30 14:41:58;;;;;;;3.13;2.50;;;;;;;;;;6138459;28;109032;-70
2023/05/30 14:45:01;;;;;;;3.00;2.80;;;;;;;;;;6150413;28;111272;-70
2023/05/30 14:48:07;;;;;;;2.77;2.57;;;;;;;;;;6157252;28;109671;-71
2023/05/30 14:51:11;;;;;;;3.40;2.37;;;;;;;;;;6157433;28;111855;-63
2023/05/30 14:54:14;;;;;;;3.43;2.60;;;;;;;;;;6162064;28;109030;-64
2023/05/30 14:57:17;;;;;;;2.43;2.23;;;;;;;;;;6162913;28;110040;-63
2023/05/30 15:00:20;;;;;;;2.40;2.20;;;;;;;;;;6151700;28;109050;-63
2023/05/30 15:03:24;;;;;;;6.73;4.97;;;;;;;;;;6147414;28;110013;-68
2023/05/30 15:06:27;;;;;;;13.70;5.33;;;;;;;;;;6137743;28;109195;-68
2023/05/30 15:09:30;;;;;;;6.90;4.73;;;;;;;;;;6137474;28;109014;-68
2023/05/30 15:12:33;;;;;;;12.23;3.07;;;;;;;;;;6127729;28;109880;-69
2023/05/30 15:15:36;;;;;;;5.17;2.83;;;;;;;;;;6153792;28;109034;-70
2023/05/30 15:18:41;;;;;;;15.60;4.90;;;;;;;;;;6162045;28;110929;-69
2023/05/30 15:21:44;;;;;;;33.70;5.53;;;;;;;;;;6161653;28;108789;-70
2023/05/30 15:24:47;;;;;;;20.50;4.53;;;;;;;;;;6149972;28;109324;-71
2023/05/30 15:27:50;;;;;;;12.87;4.00;;;;;;;;;;6144494;28;109331;-70
2023/05/30 15:30:53;;;;;;;10.50;3.20;;;;;;;;;;6117594;28;109003;-70
2023/05/30 15:33:58;;;;;;;5.10;2.90;;;;;;;;;;6136240;28;112141;-70
2023/05/30 15:37:02;;;;;;;7.10;3.30;;;;;;;;;;6125432;28;109680;-65
2023/05/30 15:40:06;;;;;;;18.73;5.00;;;;;;;;;;6125265;28;109046;-65
2023/05/30 15:43:10;;;;;;;8.00;3.37;;;;;;;;;;6123234;28;109083;-64
2023/05/30 15:46:17;;;;;;;10.57;3.80;;;;;;;;;;6132702;28;110069;-63
2023/05/30 15:49:22;;;;;;;6.97;3.23;;;;;;;;;;6125194;28;109306;-63
2023/05/30 15:52:25;;;;;;;6.73;3.80;;;;;;;;;;6139499;28;109030;-65
2023/05/30 15:55:28;;;;;;;7.03;3.43;;;;;;;;;;6128519;28;108759;-67
2023/05/30 15:58:30;;;;;;;5.07;4.57;;;;;;;;;;6130966;28;109017;-66
2023/05/30 16:01:33;;;;;;;4.47;3.63;;;;;;;;;;6140744;28;109011;-66
2023/05/30 16:04:38;;;;;;;4.10;3.67;;;;;;;;;;6141257;28;109019;-66
2023/05/30 16:07:41;;;;;;;4.40;4.10;;;;;;;;;;6136349;28;109301;-65
2023/05/30 16:10:44;;;;;;;21.30;4.80;;;;;;;;;;6135834;28;109177;-64
2023/05/30 16:13:47;;;;;;;40.60;6.60;;;;;;;;;;6142273;28;109307;-67
2023/05/30 16:16:50;;;;;;;28.10;5.87;;;;;;;;;;6153164;28;109001;-66
2023/05/30 16:19:55;;;;;;;20.33;6.03;;;;;;;;;;6131221;28;110178;-65
2023/05/30 16:22:57;;;;;;;13.60;5.77;;;;;;;;;;6140979;28;110898;-66
2023/05/30 16:26:00;;;;;;;10.50;6.40;;;;;;;;;;6134796;28;111811;-69
2023/05/30 16:29:03;;;;;;;33.53;18.10;;;;;;;;;;6118327;28;110140;-69
2023/05/30 16:32:07;;;;;;;11.67;7.80;;;;;;;;;;6107949;28;108957;-69
2023/05/30 16:35:11;;;;;;;20.37;12.73;;;;;;;;;;6116181;28;109387;-69
2023/05/30 16:38:14;;;;;;;20.77;11.43;;;;;;;;;;6121178;28;108895;-68
2023/05/30 16:41:17;;;;;;;25.23;12.37;;;;;;;;;;6124869;28;108836;-69
2023/05/30 16:44:21;;;;;;;24.00;11.50;;;;;;;;;;6128563;28;109902;-68
2023/05/30 16:47:23;;;;;;;18.43;11.93;;;;;;;;;;6147165;28;108623;-69
2023/05/30 16:50:28;;;;;;;21.57;11.30;;;;;;;;;;6140067;28;108676;-69
2023/05/30 16:53:31;;;;;;;7.73;7.00;;;;;;;;;;6127687;28;109019;-68
2023/05/30 16:56:34;;;;;;;7.70;5.80;;;;;;;;;;6132401;28;109402;-69
2023/05/30 16:59:37;;;;;;;6.50;4.93;;;;;;;;;;6134967;28;108768;-67
2023/05/30 17:02:40;;;;;;;5.70;5.07;;;;;;;;;;6131818;28;109165;-69
2023/05/30 17:05:45;;;;;;;11.53;5.70;;;;;;;;;;6125937;28;109710;-68
2023/05/30 17:08:48;;;;;;;4.83;4.20;;;;;;;;;;6133093;28;111002;-69
2023/05/30 17:11:51;;;;;;;4.97;4.30;;;;;;;;;;6132654;28;109004;-70
2023/05/30 17:14:54;;;;;;;4.60;4.20;;;;;;;;;;6136986;28;109004;-69
2023/05/30 17:17:57;;;;;;;6.83;6.13;;;;;;;;;;6123347;28;108805;-69
2023/05/30 17:21:01;;;;;;;5.30;4.80;;;;;;;;;;6118451;28;112222;-69
2023/05/30 17:24:07;;;;;;;4.93;4.40;;;;;;;;;;6129057;28;109044;-69
2023/05/30 17:27:10;;;;;;;12.47;5.00;;;;;;;;;;6125063;28;110173;-69
2023/05/30 17:30:13;;;;;;;10.87;5.63;;;;;;;;;;6110696;28;108960;-69
2023/05/30 17:33:16;;;;;;;40.80;8.60;;;;;;;;;;6135628;28;108712;-76
2023/05/30 17:36:21;;;;;;;24.57;6.40;;;;;;;;;;6131227;28;111855;-78
2023/05/30 17:39:24;;;;;;;36.63;7.57;;;;;;;;;;6126964;28;109177;-77
2023/05/30 17:42:28;;;;;;;15.63;5.87;;;;;;;;;;6133799;28;108838;-78
2023/05/30 17:45:32;;;;;;;8.53;4.50;;;;;;;;;;6146469;28;109012;-77
2023/05/30 17:48:35;;;;;;;7.93;4.40;;;;;;;;;;6133657;28;109629;-79
2023/05/30 17:51:40;;;;;;;8.83;4.80;;;;;;;;;;6115110;28;109196;-77
2023/05/30 17:54:43;;;;;;;5.80;4.87;;;;;;;;;;6130942;28;108984;-77